Terminal Aerodrome Forecast
Issued by NWS

Home | Current Version | Previous Version | Text Only | Print | Product List | Glossary Off
Versions: 1 2 3 4 5 6 7 8 9 10 11 12 13 14 15 16 17 18 19 20 21 22 23 24 25 26 27 28 29

755
FTUS43 KBIS 111738
TAFDIK
TAF
KDIK 111738Z 1118/1218 08006KT 1SM -SN BR SCT008 OVC015
     FM112000 05006KT 5SM -SN BR OVC008
     FM120000 01007KT P6SM OVC008
     FM120400 36007KT P6SM OVC015
     FM121500 04008KT P6SM OVC040=

USA.gov is the U.S. government's official web portal to all federal, state and local government web resources and services.